createdAt,value
2023-03-18T00:00:38.018Z,8.52
2023-03-18T00:03:04.053Z,8.40
2023-03-18T00:05:30.394Z,8.48
2023-03-18T00:07:56.426Z,8.56
2023-03-18T00:10:22.293Z,8.49
2023-03-18T00:12:49.702Z,8.51
2023-03-18T00:15:17.439Z,8.53
2023-03-18T00:17:43.456Z,8.55
2023-03-18T00:20:12.119Z,8.59
2023-03-18T00:22:39.709Z,8.55
2023-03-18T00:25:08.431Z,8.60
2023-03-18T00:27:35.214Z,8.47
2023-03-18T00:30:02.700Z,8.55
2023-03-18T00:32:28.656Z,8.52
2023-03-18T00:34:56.146Z,8.59
2023-03-18T00:37:32.795Z,8.48
2023-03-18T00:40:05.323Z,8.49
2023-03-18T00:42:38.141Z,8.49
2023-03-18T00:45:10.235Z,8.50
2023-03-18T00:47:37.834Z,8.39
2023-03-18T00:50:07.666Z,8.35
2023-03-18T00:52:34.154Z,8.36
2023-03-18T00:55:01.189Z,8.32
2023-03-18T00:57:28.726Z,8.33
2023-03-18T00:59:56.341Z,8.40
2023-03-18T01:02:22.958Z,8.33
2023-03-18T01:04:50.365Z,8.38
2023-03-18T01:07:16.446Z,8.33
2023-03-18T01:09:42.922Z,8.26
2023-03-18T01:12:10.689Z,8.37
2023-03-18T01:14:38.102Z,8.42
2023-03-18T01:17:05.685Z,8.44
2023-03-18T01:19:31.965Z,8.41
2023-03-18T01:21:58.015Z,8.43
2023-03-18T01:24:24.355Z,8.39
2023-03-18T01:26:50.101Z,8.42
2023-03-18T01:29:17.036Z,8.40
2023-03-18T01:31:43.160Z,8.49
2023-03-18T01:34:09.002Z,8.49
2023-03-18T01:36:34.869Z,8.55
2023-03-18T01:39:00.702Z,8.50
2023-03-18T01:41:26.555Z,8.54
2023-03-18T01:43:55.473Z,8.52
2023-03-18T01:46:42.055Z,8.55
2023-03-18T01:49:19.854Z,8.55
2023-03-18T01:52:05.985Z,8.44
2023-03-18T01:54:37.371Z,8.52
2023-03-18T01:57:03.581Z,8.53
2023-03-18T01:59:32.590Z,8.47
2023-03-18T02:02:06.028Z,8.44
2023-03-18T02:05:00.149Z,8.51
2023-03-18T02:07:29.656Z,8.48
2023-03-18T02:09:58.964Z,8.42
2023-03-18T02:12:28.773Z,8.42
2023-03-18T02:14:55.494Z,8.39
2023-03-18T02:17:26.396Z,8.53
2023-03-18T02:20:17.953Z,8.47
2023-03-18T02:22:51.382Z,8.42
2023-03-18T02:25:47.185Z,8.44
2023-03-18T02:28:20.770Z,8.34
2023-03-18T02:30:51.573Z,8.42
2023-03-18T02:33:20.523Z,8.41
2023-03-18T02:35:50.959Z,8.35
2023-03-18T02:38:16.744Z,8.35
2023-03-18T02:40:42.560Z,8.36
2023-03-18T02:43:19.470Z,8.34
2023-03-18T02:46:04.133Z,8.44
2023-03-18T02:48:35.954Z,8.39
2023-03-18T02:51:03.648Z,8.47
2023-03-18T02:53:29.471Z,8.40
2023-03-18T02:55:55.965Z,8.42
2023-03-18T02:58:21.757Z,8.39
2023-03-18T03:00:47.633Z,8.38
2023-03-18T03:03:13.842Z,8.41
2023-03-18T03:05:40.052Z,8.48
2023-03-18T03:08:06.541Z,8.42
2023-03-18T03:10:33.110Z,8.43
2023-03-18T03:12:59.516Z,8.46
2023-03-18T03:15:25.915Z,8.48
2023-03-18T03:17:52.982Z,8.55
2023-03-18T03:20:19.515Z,8.47
2023-03-18T03:22:45.677Z,8.42
2023-03-18T03:25:14.020Z,8.53
2023-03-18T03:27:41.431Z,8.50
2023-03-18T03:30:10.076Z,8.48
2023-03-18T03:32:35.988Z,8.45
2023-03-18T03:35:01.790Z,8.54
2023-03-18T03:37:27.608Z,8.46
2023-03-18T03:39:53.430Z,8.48
2023-03-18T03:42:19.626Z,8.42
2023-03-18T03:44:45.646Z,8.45
2023-03-18T03:47:11.596Z,8.46
2023-03-18T03:49:37.621Z,8.38
2023-03-18T03:52:04.675Z,8.30
2023-03-18T03:54:30.772Z,8.38
2023-03-18T03:56:56.655Z,8.30
2023-03-18T03:59:23.175Z,8.25
2023-03-18T04:01:49.127Z,8.12
2023-03-18T04:04:16.087Z,8.18
2023-03-18T04:06:42.141Z,8.19
2023-03-18T04:09:08.936Z,8.10
2023-03-18T04:11:34.695Z,7.99
2023-03-18T04:14:01.176Z,8.06
2023-03-18T04:16:27.785Z,8.07
2023-03-18T04:18:53.648Z,8.06
2023-03-18T04:21:19.567Z,8.14
2023-03-18T04:23:45.733Z,8.08
2023-03-18T04:26:12.277Z,8.16
2023-03-18T04:28:39.903Z,8.08
2023-03-18T04:31:05.695Z,7.99
2023-03-18T04:33:31.480Z,7.99
2023-03-18T04:35:57.506Z,7.95
2023-03-18T04:38:23.794Z,7.98
2023-03-18T04:40:49.667Z,7.94
2023-03-18T04:43:15.505Z,7.91
2023-03-18T04:45:41.269Z,7.88
2023-03-18T04:48:07.084Z,7.88
2023-03-18T04:50:33.864Z,7.94
2023-03-18T04:52:59.869Z,7.90
2023-03-18T04:55:25.741Z,7.91
2023-03-18T04:57:51.586Z,7.87
2023-03-18T05:00:22.992Z,7.93
2023-03-18T05:02:49.412Z,7.87
2023-03-18T05:05:20.407Z,7.91
2023-03-18T05:07:46.237Z,7.90
2023-03-18T05:10:12.148Z,7.81
2023-03-18T05:12:38.178Z,7.72
2023-03-18T05:15:05.561Z,7.85
2023-03-18T05:17:31.376Z,7.73
2023-03-18T05:19:57.296Z,7.71
2023-03-18T05:22:23.221Z,7.76
2023-03-18T05:24:49.616Z,7.70
2023-03-18T05:27:18.013Z,7.74
2023-03-18T05:29:45.032Z,7.72
2023-03-18T05:32:12.023Z,7.75
2023-03-18T05:34:39.475Z,7.82
2023-03-18T05:37:07.482Z,7.78
2023-03-18T05:39:34.021Z,7.79
2023-03-18T05:42:00.469Z,7.80
2023-03-18T05:44:26.661Z,7.75
2023-03-18T05:46:52.540Z,7.90
2023-03-18T05:49:19.738Z,7.88
2023-03-18T05:51:46.240Z,7.89
2023-03-18T05:54:13.440Z,7.89
2023-03-18T05:56:39.431Z,7.81
2023-03-18T05:59:06.948Z,7.82
2023-03-18T06:01:33.092Z,7.84
2023-03-18T06:03:59.918Z,7.82
2023-03-18T06:06:26.166Z,7.89
2023-03-18T06:08:52.520Z,8.03
2023-03-18T06:11:18.755Z,7.99
2023-03-18T06:13:44.625Z,8.03
2023-03-18T06:16:11.278Z,7.92
2023-03-18T06:18:38.214Z,7.88
2023-03-18T06:21:04.474Z,7.82
2023-03-18T06:23:31.803Z,7.93
2023-03-18T06:25:57.609Z,8.03
2023-03-18T06:28:24.051Z,7.99
2023-03-18T06:30:50.016Z,7.97
2023-03-18T06:33:15.908Z,8.05
2023-03-18T06:35:41.779Z,8.05
2023-03-18T06:38:09.986Z,8.11
2023-03-18T06:40:35.814Z,8.10
2023-03-18T06:43:01.621Z,8.16
2023-03-18T06:45:27.595Z,8.28
2023-03-18T06:47:53.514Z,8.22
2023-03-18T06:50:20.079Z,8.23
2023-03-18T06:52:45.895Z,8.26
2023-03-18T06:55:12.352Z,8.15
2023-03-18T06:57:38.348Z,8.32
2023-03-18T07:00:04.715Z,8.32
2023-03-18T07:02:31.197Z,8.30
2023-03-18T07:04:57.197Z,8.42
2023-03-18T07:07:23.952Z,8.41
2023-03-18T07:09:50.031Z,8.47
2023-03-18T07:12:15.851Z,8.43
2023-03-18T07:14:41.632Z,8.43
2023-03-18T07:17:07.572Z,8.32
2023-03-18T07:19:33.862Z,8.36
2023-03-18T07:21:59.965Z,8.28
2023-03-18T07:24:26.104Z,8.36
2023-03-18T07:26:52.817Z,8.43
2023-03-18T07:29:19.737Z,8.39
2023-03-18T07:31:46.337Z,8.44
2023-03-18T07:34:14.318Z,8.36
2023-03-18T07:36:41.285Z,8.33
2023-03-18T07:39:09.463Z,8.46
2023-03-18T07:41:37.796Z,8.45
2023-03-18T07:44:04.714Z,8.42
2023-03-18T07:46:30.529Z,8.51
2023-03-18T07:48:56.335Z,8.57
2023-03-18T07:51:22.252Z,8.67
2023-03-18T07:53:49.969Z,8.47
2023-03-18T07:56:15.805Z,8.48
2023-03-18T07:58:42.421Z,8.59
2023-03-18T08:01:08.778Z,8.58
2023-03-18T08:03:35.333Z,8.70
2023-03-18T08:06:02.040Z,8.58
2023-03-18T08:08:28.142Z,8.55
2023-03-18T08:10:59.528Z,8.47
2023-03-18T08:13:26.361Z,8.37
2023-03-18T08:15:52.663Z,8.57
2023-03-18T08:18:18.854Z,8.66
2023-03-18T08:20:45.406Z,8.63
2023-03-18T08:23:11.318Z,8.72
2023-03-18T08:25:37.767Z,8.76
2023-03-18T08:28:06.764Z,8.76
2023-03-18T08:30:33.800Z,8.91
2023-03-18T08:33:00.579Z,8.90
2023-03-18T08:35:26.825Z,9.02
2023-03-18T08:37:53.193Z,9.21
2023-03-18T08:40:19.701Z,9.21
2023-03-18T08:42:46.270Z,9.27
2023-03-18T08:45:12.521Z,9.36
2023-03-18T08:47:39.506Z,9.38
2023-03-18T08:50:05.671Z,9.47
2023-03-18T08:52:31.821Z,9.62
2023-03-18T08:54:58.031Z,9.64
2023-03-18T08:57:27.057Z,9.68
2023-03-18T08:59:53.460Z,9.79
2023-03-18T09:02:19.653Z,9.66
2023-03-18T09:04:46.751Z,9.98
2023-03-18T09:07:12.546Z,9.81
2023-03-18T09:09:43.929Z,9.82
2023-03-18T09:12:11.822Z,9.88
2023-03-18T09:14:37.959Z,9.85
2023-03-18T09:17:04.155Z,9.84
2023-03-18T09:19:30.097Z,10.03
2023-03-18T09:21:56.501Z,10.36
2023-03-18T09:24:22.332Z,10.42
2023-03-18T09:26:48.468Z,10.71
2023-03-18T09:29:14.899Z,11.04
2023-03-18T09:31:40.828Z,11.24
2023-03-18T09:34:06.613Z,11.25
2023-03-18T09:36:32.913Z,11.50
2023-03-18T09:39:00.215Z,11.58
2023-03-18T09:42:08.734Z,11.58
2023-03-18T09:44:37.065Z,11.52
2023-03-18T09:47:37.061Z,11.32
2023-03-18T09:50:28.482Z,11.41
2023-03-18T09:53:28.710Z,11.38
2023-03-18T09:56:01.464Z,11.94
2023-03-18T09:58:34.327Z,11.89
2023-03-18T10:01:02.528Z,11.63
2023-03-18T10:03:43.623Z,11.65
2023-03-18T10:06:23.972Z,11.83
2023-03-18T10:09:11.583Z,12.06
2023-03-18T10:11:45.197Z,11.59
2023-03-18T10:14:25.848Z,12.17
2023-03-18T10:17:30.482Z,12.28
2023-03-18T10:20:03.726Z,13.04
2023-03-18T10:22:54.321Z,13.51
2023-03-18T10:25:28.976Z,13.79
2023-03-18T10:28:29.284Z,14.47
2023-03-18T10:31:25.795Z,14.56
2023-03-18T10:34:03.463Z,14.59
2023-03-18T10:37:02.416Z,14.48
2023-03-18T10:39:29.013Z,15.01
2023-03-18T10:42:00.318Z,14.65
2023-03-18T10:44:32.132Z,15.00
2023-03-18T10:47:02.100Z,14.85
2023-03-18T10:49:35.059Z,14.61
2023-03-18T10:52:17.906Z,15.12
2023-03-18T10:54:49.673Z,15.67
2023-03-18T10:57:16.722Z,16.37
2023-03-18T10:59:46.942Z,17.18
2023-03-18T11:02:43.056Z,16.58
2023-03-18T11:05:21.519Z,16.80
2023-03-18T11:08:28.134Z,16.67
2023-03-18T11:10:53.895Z,17.19
2023-03-18T11:13:21.472Z,16.73
2023-03-18T11:15:54.206Z,16.26
2023-03-18T11:18:23.904Z,16.53
2023-03-18T11:21:02.921Z,16.80
2023-03-18T11:23:48.041Z,17.01
2023-03-18T11:26:20.736Z,17.65
2023-03-18T11:28:46.808Z,17.62
2023-03-18T11:31:20.010Z,17.80
2023-03-18T11:33:45.840Z,17.27
2023-03-18T11:36:22.193Z,16.23
2023-03-18T11:39:02.065Z,17.14
2023-03-18T11:41:29.484Z,18.53
2023-03-18T11:44:01.319Z,19.26
2023-03-18T11:46:32.690Z,18.05
2023-03-18T11:48:58.753Z,17.56
2023-03-18T11:51:35.976Z,16.82
2023-03-18T11:54:13.634Z,16.96
2023-03-18T11:56:59.151Z,16.12
2023-03-18T11:59:57.002Z,15.97
2023-03-18T12:02:26.176Z,16.97
2023-03-18T12:04:58.522Z,17.71
2023-03-18T12:07:30.254Z,17.89
2023-03-18T12:10:36.935Z,19.25
2023-03-18T12:13:05.527Z,19.58
2023-03-18T12:15:42.487Z,19.62
2023-03-18T12:18:19.705Z,19.30
2023-03-18T12:20:59.075Z,17.82
2023-03-18T12:23:52.872Z,16.36
2023-03-18T12:26:39.780Z,15.78
2023-03-18T12:29:27.532Z,15.71
2023-03-18T12:32:08.712Z,16.20
2023-03-18T12:34:58.330Z,16.26
2023-03-18T12:38:08.876Z,16.68
2023-03-18T12:40:50.199Z,16.17
2023-03-18T12:43:44.658Z,16.21
2023-03-18T12:46:32.235Z,16.00
2023-03-18T12:49:15.951Z,15.54
2023-03-18T12:51:48.086Z,15.72
2023-03-18T12:54:26.067Z,15.29
2023-03-18T12:56:58.959Z,15.06
2023-03-18T12:59:48.807Z,14.66
2023-03-18T13:02:36.116Z,14.79
2023-03-18T13:05:05.580Z,14.95
2023-03-18T13:07:43.565Z,15.14
2023-03-18T13:10:35.706Z,15.08
2023-03-18T13:13:07.114Z,15.28
2023-03-18T13:15:44.788Z,15.34
2023-03-18T13:18:52.127Z,14.90
2023-03-18T13:21:22.214Z,15.09
2023-03-18T13:24:39.625Z,14.86
2023-03-18T13:27:18.969Z,15.32
2023-03-18T13:29:59.423Z,15.93
2023-03-18T13:32:37.106Z,16.48
2023-03-18T13:35:53.620Z,17.46
2023-03-18T13:38:37.313Z,17.53
2023-03-18T13:41:33.358Z,18.11
2023-03-18T13:44:13.832Z,18.03
2023-03-18T13:46:46.185Z,18.30
2023-03-18T13:49:18.370Z,18.36
2023-03-18T13:51:54.708Z,18.03
2023-03-18T13:54:21.169Z,17.96
2023-03-18T13:56:52.226Z,17.30
2023-03-18T13:59:33.122Z,17.00
2023-03-18T14:02:28.243Z,16.39
2023-03-18T14:04:57.534Z,16.22
2023-03-18T14:07:24.229Z,16.10
2023-03-18T14:10:15.252Z,16.21
2023-03-18T14:12:46.655Z,16.41
2023-03-18T14:15:15.580Z,16.08
2023-03-18T14:17:58.077Z,15.31
2023-03-18T14:20:27.836Z,14.85
2023-03-18T14:23:29.128Z,14.67
2023-03-18T14:26:03.818Z,15.07
2023-03-18T14:28:44.652Z,14.90
2023-03-18T14:31:18.759Z,14.53
2023-03-18T14:34:02.907Z,14.68
2023-03-18T14:36:51.570Z,14.73
2023-03-18T14:39:31.791Z,14.72
2023-03-18T14:42:02.542Z,14.48
2023-03-18T14:44:51.841Z,14.33
2023-03-18T14:47:39.345Z,14.29
2023-03-18T14:50:15.251Z,14.23
2023-03-18T14:52:45.316Z,14.40
2023-03-18T14:55:21.673Z,14.32
2023-03-18T14:57:47.451Z,14.40
2023-03-18T15:00:18.444Z,14.59
2023-03-18T15:02:45.211Z,14.73
2023-03-18T15:05:17.270Z,14.67
2023-03-18T15:07:43.952Z,14.30
2023-03-18T15:10:13.491Z,14.00
2023-03-18T15:12:39.726Z,13.85
2023-03-18T15:15:12.102Z,13.57
2023-03-18T15:17:38.721Z,13.40
2023-03-18T15:20:05.771Z,13.35
2023-03-18T15:22:33.907Z,13.33
2023-03-18T15:25:02.697Z,13.20
2023-03-18T15:27:32.292Z,13.20
2023-03-18T15:30:00.931Z,13.33
2023-03-18T15:32:26.635Z,13.53
2023-03-18T15:35:10.640Z,13.52
2023-03-18T15:37:42.021Z,13.29
2023-03-18T15:40:30.185Z,13.28
2023-03-18T15:43:08.322Z,13.01
2023-03-18T15:45:34.870Z,13.10
2023-03-18T15:48:09.136Z,13.19
2023-03-18T15:50:36.457Z,13.29
2023-03-18T15:53:18.054Z,13.45
2023-03-18T15:55:49.334Z,13.61
2023-03-18T15:58:35.631Z,13.61
2023-03-18T16:01:02.094Z,13.67
2023-03-18T16:03:31.096Z,13.78
2023-03-18T16:05:57.494Z,13.82
2023-03-18T16:08:23.937Z,13.78
2023-03-18T16:10:53.106Z,13.87
2023-03-18T16:13:22.632Z,13.70
2023-03-18T16:15:48.687Z,13.56
2023-03-18T16:18:15.331Z,13.52
2023-03-18T16:20:44.786Z,13.71
2023-03-18T16:23:11.624Z,13.52
2023-03-18T16:25:37.559Z,13.35
2023-03-18T16:28:03.467Z,13.32
2023-03-18T16:30:32.524Z,13.11
2023-03-18T16:32:58.864Z,13.10
2023-03-18T16:35:29.813Z,13.07
2023-03-18T16:37:55.886Z,13.05
2023-03-18T16:40:24.203Z,12.97
2023-03-18T16:42:51.835Z,12.99
2023-03-18T16:45:21.557Z,12.87
2023-03-18T16:47:50.294Z,12.89
2023-03-18T16:50:17.147Z,12.93
2023-03-18T16:52:44.100Z,12.84
2023-03-18T16:55:14.121Z,12.91
2023-03-18T16:57:43.123Z,12.77
2023-03-18T17:00:29.350Z,12.68
2023-03-18T17:02:55.637Z,12.69
2023-03-18T17:05:21.773Z,12.63
2023-03-18T17:07:48.994Z,12.72
2023-03-18T17:10:17.788Z,12.81
2023-03-18T17:12:58.707Z,12.74
2023-03-18T17:15:31.240Z,12.62
2023-03-18T17:17:58.917Z,12.61
2023-03-18T17:20:27.746Z,12.58
2023-03-18T17:22:54.952Z,12.59
2023-03-18T17:25:23.708Z,12.57
2023-03-18T17:27:54.570Z,12.52
2023-03-18T17:30:42.220Z,12.39
2023-03-18T17:33:31.949Z,12.36
2023-03-18T17:36:00.925Z,12.27
2023-03-18T17:38:27.605Z,12.26
2023-03-18T17:40:54.718Z,12.46
2023-03-18T17:43:26.956Z,12.35
2023-03-18T17:45:53.377Z,12.19
2023-03-18T17:48:21.507Z,12.06
2023-03-18T17:50:49.953Z,12.00
2023-03-18T17:53:30.740Z,12.00
2023-03-18T17:55:57.263Z,11.94
2023-03-18T17:58:26.734Z,12.01
2023-03-18T18:00:53.268Z,11.94
2023-03-18T18:03:30.133Z,12.00
2023-03-18T18:05:57.714Z,12.00
2023-03-18T18:08:24.944Z,11.87
2023-03-18T18:11:02.112Z,11.84
2023-03-18T18:13:28.126Z,11.82
2023-03-18T18:15:54.127Z,11.68
2023-03-18T18:18:24.500Z,11.78
2023-03-18T18:20:59.339Z,11.89
2023-03-18T18:23:33.856Z,11.77
2023-03-18T18:26:03.826Z,11.80
2023-03-18T18:28:32.766Z,11.67
2023-03-18T18:30:59.554Z,11.72
2023-03-18T18:33:26.364Z,11.85
2023-03-18T18:35:53.459Z,11.83
2023-03-18T18:38:19.600Z,11.57
2023-03-18T18:40:45.807Z,11.61
2023-03-18T18:43:11.923Z,11.74
2023-03-18T18:45:38.015Z,11.71
2023-03-18T18:48:12.198Z,11.69
2023-03-18T18:50:39.253Z,11.69
2023-03-18T18:53:37.719Z,11.60
2023-03-18T18:56:13.738Z,11.51
2023-03-18T18:58:39.651Z,11.50
2023-03-18T19:01:05.619Z,11.49
2023-03-18T19:03:32.140Z,11.67
2023-03-18T19:06:00.375Z,11.59
2023-03-18T19:08:31.020Z,11.54
2023-03-18T19:11:02.876Z,11.49
2023-03-18T19:13:30.838Z,11.44
2023-03-18T19:16:00.088Z,11.47
2023-03-18T19:18:38.547Z,11.51
2023-03-18T19:21:05.369Z,11.40
2023-03-18T19:23:33.488Z,11.36
2023-03-18T19:26:00.956Z,11.33
2023-03-18T19:28:57.357Z,11.23
2023-03-18T19:31:26.408Z,11.09
2023-03-18T19:33:53.613Z,11.09
2023-03-18T19:36:29.077Z,11.19
2023-03-18T19:38:56.502Z,11.12
2023-03-18T19:41:22.456Z,11.11
2023-03-18T19:43:49.241Z,11.20
2023-03-18T19:46:17.588Z,11.12
2023-03-18T19:48:44.348Z,11.13
2023-03-18T19:51:14.579Z,11.07
2023-03-18T19:53:45.979Z,11.05
2023-03-18T19:56:23.255Z,11.04
2023-03-18T19:58:51.989Z,10.85
2023-03-18T20:01:19.599Z,10.97
2023-03-18T20:03:46.183Z,10.87
2023-03-18T20:06:12.144Z,10.94
2023-03-18T20:08:38.106Z,10.91
2023-03-18T20:11:04.157Z,10.95
2023-03-18T20:13:30.900Z,10.92
2023-03-18T20:15:56.839Z,10.77
2023-03-18T20:18:22.689Z,10.79
2023-03-18T20:20:50.701Z,10.93
2023-03-18T20:23:26.034Z,10.93
2023-03-18T20:25:53.044Z,10.96
2023-03-18T20:28:24.364Z,10.90
2023-03-18T20:30:52.385Z,10.85
2023-03-18T20:33:20.067Z,10.93
2023-03-18T20:35:47.754Z,10.77
2023-03-18T20:38:35.238Z,10.75
2023-03-18T20:41:02.085Z,10.78
2023-03-18T20:43:29.017Z,10.69
2023-03-18T20:45:57.599Z,10.62
2023-03-18T20:48:23.766Z,10.62
2023-03-18T20:50:51.010Z,10.72
2023-03-18T20:53:24.261Z,10.73
2023-03-18T20:55:50.816Z,10.70
2023-03-18T20:58:25.586Z,10.63
2023-03-18T21:00:52.436Z,10.66
2023-03-18T21:03:26.664Z,10.63
2023-03-18T21:05:57.076Z,10.66
2023-03-18T21:08:24.774Z,10.80
2023-03-18T21:10:52.512Z,10.64
2023-03-18T21:13:24.177Z,10.68
2023-03-18T21:15:50.191Z,10.66
2023-03-18T21:18:16.398Z,10.66
2023-03-18T21:20:42.915Z,10.72
2023-03-18T21:23:24.346Z,10.58
2023-03-18T21:25:51.574Z,10.54
2023-03-18T21:28:19.288Z,10.60
2023-03-18T21:30:47.684Z,10.59
2023-03-18T21:33:27.181Z,10.51
2023-03-18T21:35:56.162Z,10.47
2023-03-18T21:38:23.621Z,10.48
2023-03-18T21:40:49.497Z,10.53
2023-03-18T21:43:34.493Z,10.47
2023-03-18T21:46:01.243Z,10.49
2023-03-18T21:48:28.466Z,10.50
2023-03-18T21:50:54.966Z,10.41
2023-03-18T21:53:23.675Z,10.43
2023-03-18T21:55:51.511Z,10.40
2023-03-18T21:58:19.680Z,10.42
2023-03-18T22:00:57.928Z,10.41
2023-03-18T22:03:27.243Z,10.54
2023-03-18T22:05:53.809Z,10.48
2023-03-18T22:08:20.732Z,10.35
2023-03-18T22:10:47.911Z,10.49
2023-03-18T22:13:24.392Z,10.43
2023-03-18T22:15:52.390Z,10.41
2023-03-18T22:18:19.302Z,10.34
2023-03-18T22:20:47.017Z,10.39
2023-03-18T22:23:22.163Z,10.49
2023-03-18T22:25:53.308Z,10.45
2023-03-18T22:28:19.655Z,10.55
2023-03-18T22:30:51.076Z,10.51
2023-03-18T22:33:25.145Z,10.52
2023-03-18T22:35:51.091Z,10.44
2023-03-18T22:38:19.117Z,10.41
2023-03-18T22:40:47.043Z,10.47
2023-03-18T22:43:31.638Z,10.42
2023-03-18T22:45:59.088Z,10.31
2023-03-18T22:48:25.671Z,10.31
2023-03-18T22:50:52.945Z,10.32
2023-03-18T22:53:40.432Z,10.24
2023-03-18T22:56:09.845Z,10.13
2023-03-18T22:58:35.774Z,10.39
2023-03-18T23:01:01.560Z,10.32
2023-03-18T23:03:33.051Z,10.21
2023-03-18T23:06:00.433Z,10.19
2023-03-18T23:08:26.977Z,10.11
2023-03-18T23:10:55.754Z,10.18
2023-03-18T23:13:24.151Z,10.06
2023-03-18T23:15:50.488Z,10.05
2023-03-18T23:18:17.603Z,10.03
2023-03-18T23:20:46.029Z,10.11
2023-03-18T23:23:12.466Z,10.00
2023-03-18T23:25:39.623Z,10.09
2023-03-18T23:28:05.972Z,10.03
2023-03-18T23:30:33.913Z,10.10
2023-03-18T23:33:00.206Z,10.06
2023-03-18T23:35:26.118Z,10.12
2023-03-18T23:37:51.919Z,9.98
2023-03-18T23:40:17.868Z,10.03
2023-03-18T23:42:44.382Z,10.06
2023-03-18T23:45:11.339Z,10.21
2023-03-18T23:47:37.416Z,10.16
2023-03-18T23:50:07.893Z,10.17
2023-03-18T23:52:33.887Z,10.16
2023-03-18T23:54:59.834Z,10.20
2023-03-18T23:57:26.773Z,10.17
2023-03-18T23:59:52.878Z,10.20
